createdAt,value
2023-03-23T16:26:59.406Z,18.20
2023-03-23T16:29:46.786Z,16.00
2023-03-23T16:32:13.020Z,15.90
2023-03-23T16:34:39.816Z,15.70
2023-03-23T16:37:07.251Z,15.70
2023-03-23T16:39:33.880Z,15.50
2023-03-23T17:09:04.564Z,15.40
2023-03-23T17:11:31.414Z,15.10
2023-03-23T17:13:58.077Z,15.00
2023-03-23T17:16:24.735Z,15.00
2023-03-23T17:18:51.473Z,15.00
2023-03-23T17:21:20.534Z,15.10
2023-03-23T17:23:47.140Z,15.10
2023-03-23T17:26:13.814Z,15.00
2023-03-23T17:28:40.653Z,15.10
2023-03-23T17:31:07.530Z,15.00
2023-03-23T20:21:27.327Z,14.90
2023-03-23T20:23:56.926Z,13.60
2023-03-23T20:26:37.276Z,13.60
2023-03-23T20:29:04.984Z,13.50
2023-03-23T20:31:37.495Z,13.50
2023-03-23T20:34:08.444Z,13.50
2023-03-23T20:36:46.156Z,13.40
2023-03-23T20:39:18.548Z,13.40
2023-03-23T20:41:47.244Z,13.40
2023-03-23T20:44:15.536Z,13.40
2023-03-23T20:46:46.575Z,13.40
2023-03-23T20:49:13.837Z,13.40
2023-03-23T20:51:40.939Z,13.40
2023-03-23T20:54:07.597Z,13.40
2023-03-23T20:56:34.836Z,13.40
2023-03-23T20:59:02.350Z,13.40
2023-03-23T21:01:29.174Z,13.40
2023-03-23T21:03:56.988Z,13.40
2023-03-23T21:06:28.084Z,13.40
2023-03-23T21:08:55.925Z,13.40
2023-03-23T21:11:24.758Z,13.30
2023-03-23T21:13:51.890Z,13.30
2023-03-23T21:16:19.344Z,13.30
2023-03-23T21:18:47.335Z,13.30
2023-03-23T21:21:14.918Z,13.30
2023-03-23T21:23:47.363Z,13.30
2023-03-23T21:26:16.673Z,13.30
2023-03-23T21:28:44.468Z,13.30
2023-03-23T21:31:11.310Z,13.20
2023-03-23T21:33:38.072Z,13.20
2023-03-23T21:36:05.060Z,13.10
2023-03-23T21:38:32.231Z,13.10
2023-03-23T21:41:05.357Z,13.00
2023-03-23T21:43:32.004Z,13.00
2023-03-23T21:46:03.793Z,13.00
2023-03-23T21:48:30.526Z,13.00
2023-03-23T21:50:57.258Z,13.00
2023-03-23T21:53:25.341Z,13.00
2023-03-23T21:55:52.299Z,13.00
2023-03-23T21:58:21.385Z,13.00
2023-03-23T22:00:49.916Z,12.90
2023-03-23T22:03:19.066Z,12.90
2023-03-23T22:05:46.400Z,13.00
2023-03-23T22:08:13.152Z,12.80
2023-03-23T23:54:22.574Z,12.90
2023-03-23T23:56:50.815Z,12.50
2023-03-23T23:59:17.659Z,12.50
